sensor_id;sensor_type;location;lat;lon;timestamp;P1;durP1;ratioP1;P2;durP2;ratioP2
31081;SDS011;17737;52.586;13.284;2022-12-19T00:00:31;3.47;;;1.92;;
31081;SDS011;17737;52.586;13.284;2022-12-19T00:02:59;4.15;;;2.00;;
31081;SDS011;17737;52.586;13.284;2022-12-19T00:05:27;3.90;;;2.63;;
31081;SDS011;17737;52.586;13.284;2022-12-19T00:07:55;6.57;;;2.83;;
31081;SDS011;17737;52.586;13.284;2022-12-19T00:10:27;3.40;;;2.10;;
31081;SDS011;17737;52.586;13.284;2022-12-19T00:12:56;4.10;;;2.80;;
31081;SDS011;17737;52.586;13.284;2022-12-19T00:17:52;3.80;;;2.28;;
31081;SDS011;17737;52.586;13.284;2022-12-19T00:20:20;3.10;;;1.92;;
31081;SDS011;17737;52.586;13.284;2022-12-19T00:22:47;3.42;;;2.13;;
31081;SDS011;17737;52.586;13.284;2022-12-19T00:25:16;3.35;;;1.90;;
31081;SDS011;17737;52.586;13.284;2022-12-19T00:27:44;3.50;;;2.20;;
31081;SDS011;17737;52.586;13.284;2022-12-19T00:30:13;4.15;;;2.78;;
31081;SDS011;17737;52.586;13.284;2022-12-19T00:32:42;3.50;;;2.20;;
31081;SDS011;17737;52.586;13.284;2022-12-19T00:35:09;3.72;;;1.98;;
31081;SDS011;17737;52.586;13.284;2022-12-19T00:37:37;2.75;;;2.10;;
31081;SDS011;17737;52.586;13.284;2022-12-19T00:40:14;3.13;;;2.10;;
31081;SDS011;17737;52.586;13.284;2022-12-19T00:42:42;4.43;;;2.65;;
31081;SDS011;17737;52.586;13.284;2022-12-19T00:45:20;3.33;;;2.22;;
31081;SDS011;17737;52.586;13.284;2022-12-19T00:47:47;3.72;;;2.38;;
31081;SDS011;17737;52.586;13.284;2022-12-19T00:50:15;3.75;;;2.58;;
31081;SDS011;17737;52.586;13.284;2022-12-19T00:52:43;3.67;;;2.35;;
31081;SDS011;17737;52.586;13.284;2022-12-19T00:55:11;4.32;;;2.20;;
31081;SDS011;17737;52.586;13.284;2022-12-19T00:57:44;3.38;;;2.17;;
31081;SDS011;17737;52.586;13.284;2022-12-19T01:00:13;2.90;;;1.77;;
31081;SDS011;17737;52.586;13.284;2022-12-19T01:02:43;3.70;;;2.50;;
31081;SDS011;17737;52.586;13.284;2022-12-19T01:05:11;3.75;;;2.53;;
31081;SDS011;17737;52.586;13.284;2022-12-19T01:07:39;3.63;;;2.22;;
31081;SDS011;17737;52.586;13.284;2022-12-19T01:10:07;3.25;;;2.17;;
31081;SDS011;17737;52.586;13.284;2022-12-19T01:12:36;3.50;;;2.20;;
31081;SDS011;17737;52.586;13.284;2022-12-19T01:15:12;3.90;;;1.98;;
31081;SDS011;17737;52.586;13.284;2022-12-19T01:17:43;3.20;;;2.00;;
31081;SDS011;17737;52.586;13.284;2022-12-19T01:20:12;3.15;;;1.77;;
31081;SDS011;17737;52.586;13.284;2022-12-19T01:22:41;3.15;;;2.25;;
31081;SDS011;17737;52.586;13.284;2022-12-19T01:25:08;3.67;;;2.00;;
31081;SDS011;17737;52.586;13.284;2022-12-19T01:27:36;3.10;;;2.20;;
31081;SDS011;17737;52.586;13.284;2022-12-19T01:30:04;3.78;;;2.40;;
31081;SDS011;17737;52.586;13.284;2022-12-19T01:32:35;3.80;;;2.20;;
31081;SDS011;17737;52.586;13.284;2022-12-19T01:35:04;3.50;;;2.10;;
31081;SDS011;17737;52.586;13.284;2022-12-19T01:37:45;3.08;;;2.20;;
31081;SDS011;17737;52.586;13.284;2022-12-19T01:40:13;3.95;;;1.92;;
31081;SDS011;17737;52.586;13.284;2022-12-19T01:42:41;3.42;;;1.88;;
31081;SDS011;17737;52.586;13.284;2022-12-19T01:48:13;3.15;;;2.05;;
31081;SDS011;17737;52.586;13.284;2022-12-19T01:50:48;2.78;;;1.98;;
31081;SDS011;17737;52.586;13.284;2022-12-19T01:53:29;3.08;;;1.98;;
31081;SDS011;17737;52.586;13.284;2022-12-19T01:56:02;3.42;;;1.98;;
31081;SDS011;17737;52.586;13.284;2022-12-19T01:58:34;3.20;;;2.08;;
31081;SDS011;17737;52.586;13.284;2022-12-19T02:01:04;3.60;;;2.33;;
31081;SDS011;17737;52.586;13.284;2022-12-19T02:03:32;2.95;;;1.83;;
31081;SDS011;17737;52.586;13.284;2022-12-19T02:06:04;3.08;;;2.05;;
31081;SDS011;17737;52.586;13.284;2022-12-19T02:08:34;3.05;;;1.85;;
31081;SDS011;17737;52.586;13.284;2022-12-19T02:11:03;4.07;;;2.10;;
31081;SDS011;17737;52.586;13.284;2022-12-19T02:13:31;3.42;;;2.15;;
31081;SDS011;17737;52.586;13.284;2022-12-19T02:16:00;3.00;;;2.10;;
31081;SDS011;17737;52.586;13.284;2022-12-19T02:18:33;3.53;;;2.55;;
31081;SDS011;17737;52.586;13.284;2022-12-19T02:21:16;3.58;;;2.08;;
31081;SDS011;17737;52.586;13.284;2022-12-19T02:27:15;2.80;;;2.00;;
31081;SDS011;17737;52.586;13.284;2022-12-19T02:30:06;3.90;;;2.00;;
31081;SDS011;17737;52.586;13.284;2022-12-19T02:32:40;3.25;;;2.53;;
31081;SDS011;17737;52.586;13.284;2022-12-19T02:35:28;3.45;;;2.60;;
31081;SDS011;17737;52.586;13.284;2022-12-19T02:38:05;2.53;;;1.80;;
31081;SDS011;17737;52.586;13.284;2022-12-19T02:40:39;2.57;;;1.73;;
31081;SDS011;17737;52.586;13.284;2022-12-19T02:43:15;3.67;;;2.25;;
31081;SDS011;17737;52.586;13.284;2022-12-19T02:45:45;3.58;;;2.40;;
31081;SDS011;17737;52.586;13.284;2022-12-19T02:48:15;2.88;;;1.98;;
31081;SDS011;17737;52.586;13.284;2022-12-19T02:50:45;3.78;;;2.50;;
31081;SDS011;17737;52.586;13.284;2022-12-19T02:53:15;3.47;;;2.72;;
31081;SDS011;17737;52.586;13.284;2022-12-19T02:55:56;3.10;;;2.17;;
31081;SDS011;17737;52.586;13.284;2022-12-19T02:58:42;4.15;;;2.38;;
31081;SDS011;17737;52.586;13.284;2022-12-19T03:01:35;4.55;;;2.20;;
31081;SDS011;17737;52.586;13.284;2022-12-19T03:04:16;4.10;;;2.33;;
31081;SDS011;17737;52.586;13.284;2022-12-19T03:06:52;3.53;;;2.33;;
31081;SDS011;17737;52.586;13.284;2022-12-19T03:09:29;4.05;;;2.22;;
31081;SDS011;17737;52.586;13.284;2022-12-19T03:12:05;3.58;;;2.38;;
31081;SDS011;17737;52.586;13.284;2022-12-19T03:14:42;3.33;;;2.20;;
31081;SDS011;17737;52.586;13.284;2022-12-19T03:17:12;3.70;;;2.00;;
31081;SDS011;17737;52.586;13.284;2022-12-19T03:19:42;3.10;;;2.10;;
31081;SDS011;17737;52.586;13.284;2022-12-19T03:22:11;3.28;;;2.03;;
31081;SDS011;17737;52.586;13.284;2022-12-19T03:24:39;3.17;;;2.00;;
31081;SDS011;17737;52.586;13.284;2022-12-19T03:27:07;3.67;;;2.08;;
31081;SDS011;17737;52.586;13.284;2022-12-19T03:29:39;3.15;;;2.10;;
31081;SDS011;17737;52.586;13.284;2022-12-19T03:32:12;4.15;;;2.17;;
31081;SDS011;17737;52.586;13.284;2022-12-19T03:34:43;3.90;;;2.20;;
31081;SDS011;17737;52.586;13.284;2022-12-19T03:37:16;3.33;;;2.13;;
31081;SDS011;17737;52.586;13.284;2022-12-19T03:39:47;3.90;;;2.63;;
31081;SDS011;17737;52.586;13.284;2022-12-19T03:42:22;3.60;;;2.30;;
31081;SDS011;17737;52.586;13.284;2022-12-19T03:45:10;3.42;;;2.47;;
31081;SDS011;17737;52.586;13.284;2022-12-19T03:47:43;3.88;;;2.15;;
31081;SDS011;17737;52.586;13.284;2022-12-19T03:50:17;4.05;;;2.30;;
31081;SDS011;17737;52.586;13.284;2022-12-19T03:52:46;3.13;;;2.08;;
31081;SDS011;17737;52.586;13.284;2022-12-19T03:55:25;3.20;;;2.28;;
31081;SDS011;17737;52.586;13.284;2022-12-19T03:57:58;2.85;;;1.90;;
31081;SDS011;17737;52.586;13.284;2022-12-19T04:00:33;3.85;;;2.20;;
31081;SDS011;17737;52.586;13.284;2022-12-19T04:03:04;3.50;;;2.42;;
31081;SDS011;17737;52.586;13.284;2022-12-19T04:05:34;3.58;;;2.15;;
31081;SDS011;17737;52.586;13.284;2022-12-19T04:08:04;3.67;;;2.38;;
31081;SDS011;17737;52.586;13.284;2022-12-19T04:10:35;3.35;;;2.10;;
31081;SDS011;17737;52.586;13.284;2022-12-19T04:13:11;3.20;;;2.55;;
31081;SDS011;17737;52.586;13.284;2022-12-19T04:15:45;3.17;;;2.25;;
31081;SDS011;17737;52.586;13.284;2022-12-19T04:18:17;3.75;;;2.35;;
31081;SDS011;17737;52.586;13.284;2022-12-19T04:23:20;4.05;;;3.10;;
31081;SDS011;17737;52.586;13.284;2022-12-19T04:25:54;3.65;;;2.55;;
31081;SDS011;17737;52.586;13.284;2022-12-19T04:28:29;2.97;;;2.20;;
31081;SDS011;17737;52.586;13.284;2022-12-19T04:30:59;4.78;;;2.45;;
31081;SDS011;17737;52.586;13.284;2022-12-19T04:35:58;4.25;;;2.60;;
31081;SDS011;17737;52.586;13.284;2022-12-19T04:38:26;3.25;;;2.30;;
31081;SDS011;17737;52.586;13.284;2022-12-19T04:40:54;4.10;;;2.92;;
31081;SDS011;17737;52.586;13.284;2022-12-19T04:43:22;4.00;;;2.42;;
31081;SDS011;17737;52.586;13.284;2022-12-19T04:45:50;3.10;;;2.30;;
31081;SDS011;17737;52.586;13.284;2022-12-19T04:48:22;5.00;;;2.80;;
31081;SDS011;17737;52.586;13.284;2022-12-19T04:50:50;3.70;;;2.47;;
31081;SDS011;17737;52.586;13.284;2022-12-19T04:53:20;3.42;;;2.50;;
31081;SDS011;17737;52.586;13.284;2022-12-19T04:55:48;3.55;;;2.67;;
31081;SDS011;17737;52.586;13.284;2022-12-19T04:58:16;4.18;;;2.75;;
31081;SDS011;17737;52.586;13.284;2022-12-19T05:00:47;3.33;;;2.25;;
31081;SDS011;17737;52.586;13.284;2022-12-19T05:03:15;3.78;;;2.58;;
31081;SDS011;17737;52.586;13.284;2022-12-19T05:05:43;3.63;;;2.45;;
31081;SDS011;17737;52.586;13.284;2022-12-19T05:08:11;3.38;;;2.42;;
31081;SDS011;17737;52.586;13.284;2022-12-19T05:10:40;3.08;;;2.22;;
31081;SDS011;17737;52.586;13.284;2022-12-19T05:13:09;3.13;;;2.42;;
31081;SDS011;17737;52.586;13.284;2022-12-19T05:15:37;3.63;;;2.38;;
31081;SDS011;17737;52.586;13.284;2022-12-19T05:18:04;3.63;;;2.53;;
31081;SDS011;17737;52.586;13.284;2022-12-19T05:20:33;4.13;;;2.90;;
31081;SDS011;17737;52.586;13.284;2022-12-19T05:23:02;4.18;;;2.80;;
31081;SDS011;17737;52.586;13.284;2022-12-19T05:25:41;4.20;;;2.63;;
31081;SDS011;17737;52.586;13.284;2022-12-19T05:28:09;4.13;;;2.38;;
31081;SDS011;17737;52.586;13.284;2022-12-19T05:30:37;3.75;;;2.50;;
31081;SDS011;17737;52.586;13.284;2022-12-19T05:33:05;4.55;;;2.95;;
31081;SDS011;17737;52.586;13.284;2022-12-19T05:35:33;3.55;;;2.38;;
31081;SDS011;17737;52.586;13.284;2022-12-19T05:38:02;3.60;;;2.60;;
31081;SDS011;17737;52.586;13.284;2022-12-19T05:40:30;4.57;;;2.78;;
31081;SDS011;17737;52.586;13.284;2022-12-19T05:42:59;5.30;;;2.58;;
31081;SDS011;17737;52.586;13.284;2022-12-19T05:45:27;3.10;;;2.22;;
31081;SDS011;17737;52.586;13.284;2022-12-19T05:47:55;7.85;;;2.78;;
31081;SDS011;17737;52.586;13.284;2022-12-19T05:50:26;3.70;;;2.60;;
31081;SDS011;17737;52.586;13.284;2022-12-19T05:52:54;3.25;;;2.10;;
31081;SDS011;17737;52.586;13.284;2022-12-19T05:55:22;4.13;;;2.70;;
31081;SDS011;17737;52.586;13.284;2022-12-19T05:57:50;3.50;;;2.80;;
31081;SDS011;17737;52.586;13.284;2022-12-19T06:00:19;3.95;;;3.05;;
31081;SDS011;17737;52.586;13.284;2022-12-19T06:02:48;3.80;;;2.78;;
31081;SDS011;17737;52.586;13.284;2022-12-19T06:05:16;4.88;;;2.63;;
31081;SDS011;17737;52.586;13.284;2022-12-19T06:07:44;3.72;;;2.72;;
31081;SDS011;17737;52.586;13.284;2022-12-19T06:10:11;4.50;;;2.75;;
31081;SDS011;17737;52.586;13.284;2022-12-19T06:12:39;8.75;;;2.33;;
31081;SDS011;17737;52.586;13.284;2022-12-19T06:15:07;3.40;;;2.35;;
31081;SDS011;17737;52.586;13.284;2022-12-19T06:17:37;3.72;;;2.80;;
31081;SDS011;17737;52.586;13.284;2022-12-19T06:20:05;3.80;;;2.60;;
31081;SDS011;17737;52.586;13.284;2022-12-19T06:22:34;3.53;;;2.53;;
31081;SDS011;17737;52.586;13.284;2022-12-19T06:25:01;3.20;;;2.42;;
31081;SDS011;17737;52.586;13.284;2022-12-19T06:27:30;3.67;;;2.92;;
31081;SDS011;17737;52.586;13.284;2022-12-19T06:29:58;4.13;;;2.42;;
31081;SDS011;17737;52.586;13.284;2022-12-19T06:32:26;3.53;;;2.38;;
31081;SDS011;17737;52.586;13.284;2022-12-19T06:34:58;2.90;;;1.90;;
31081;SDS011;17737;52.586;13.284;2022-12-19T06:37:30;3.50;;;2.47;;
31081;SDS011;17737;52.586;13.284;2022-12-19T06:39:58;2.95;;;2.08;;
31081;SDS011;17737;52.586;13.284;2022-12-19T06:42:25;3.00;;;2.25;;
31081;SDS011;17737;52.586;13.284;2022-12-19T06:44:53;3.92;;;2.80;;
31081;SDS011;17737;52.586;13.284;2022-12-19T06:47:22;3.70;;;2.10;;
31081;SDS011;17737;52.586;13.284;2022-12-19T06:49:51;3.00;;;2.35;;
31081;SDS011;17737;52.586;13.284;2022-12-19T06:52:20;3.60;;;2.45;;
31081;SDS011;17737;52.586;13.284;2022-12-19T06:54:48;3.00;;;2.05;;
31081;SDS011;17737;52.586;13.284;2022-12-19T06:57:15;4.38;;;2.67;;
31081;SDS011;17737;52.586;13.284;2022-12-19T06:59:43;3.63;;;2.42;;
31081;SDS011;17737;52.586;13.284;2022-12-19T07:02:16;3.65;;;2.58;;
31081;SDS011;17737;52.586;13.284;2022-12-19T07:04:51;3.38;;;2.55;;
31081;SDS011;17737;52.586;13.284;2022-12-19T07:07:25;3.65;;;2.78;;
31081;SDS011;17737;52.586;13.284;2022-12-19T07:09:54;2.75;;;1.67;;
31081;SDS011;17737;52.586;13.284;2022-12-19T07:12:22;3.30;;;1.98;;
31081;SDS011;17737;52.586;13.284;2022-12-19T07:14:50;3.83;;;2.58;;
31081;SDS011;17737;52.586;13.284;2022-12-19T07:17:19;3.00;;;2.20;;
31081;SDS011;17737;52.586;13.284;2022-12-19T07:19:51;3.03;;;2.13;;
31081;SDS011;17737;52.586;13.284;2022-12-19T07:22:22;3.10;;;2.15;;
31081;SDS011;17737;52.586;13.284;2022-12-19T07:24:55;2.60;;;1.85;;
31081;SDS011;17737;52.586;13.284;2022-12-19T07:27:24;3.25;;;1.98;;
31081;SDS011;17737;52.586;13.284;2022-12-19T07:30:01;2.65;;;1.67;;
31081;SDS011;17737;52.586;13.284;2022-12-19T07:32:29;3.60;;;2.38;;
31081;SDS011;17737;52.586;13.284;2022-12-19T07:34:56;3.30;;;2.33;;
31081;SDS011;17737;52.586;13.284;2022-12-19T07:37:26;2.80;;;2.15;;
31081;SDS011;17737;52.586;13.284;2022-12-19T07:39:53;2.78;;;2.28;;
31081;SDS011;17737;52.586;13.284;2022-12-19T07:42:21;2.83;;;1.90;;
31081;SDS011;17737;52.586;13.284;2022-12-19T07:44:54;3.17;;;1.80;;
31081;SDS011;17737;52.586;13.284;2022-12-19T07:47:22;4.13;;;2.63;;
31081;SDS011;17737;52.586;13.284;2022-12-19T07:49:52;2.58;;;1.85;;
31081;SDS011;17737;52.586;13.284;2022-12-19T07:52:20;3.35;;;2.40;;
31081;SDS011;17737;52.586;13.284;2022-12-19T07:54:49;4.28;;;2.35;;
31081;SDS011;17737;52.586;13.284;2022-12-19T07:57:17;2.65;;;1.88;;
31081;SDS011;17737;52.586;13.284;2022-12-19T07:59:45;2.95;;;2.17;;
31081;SDS011;17737;52.586;13.284;2022-12-19T08:02:13;2.22;;;1.63;;
31081;SDS011;17737;52.586;13.284;2022-12-19T08:04:41;2.45;;;2.05;;
31081;SDS011;17737;52.586;13.284;2022-12-19T08:07:09;3.65;;;2.30;;
31081;SDS011;17737;52.586;13.284;2022-12-19T08:09:38;2.83;;;1.63;;
31081;SDS011;17737;52.586;13.284;2022-12-19T08:12:07;3.55;;;2.08;;
31081;SDS011;17737;52.586;13.284;2022-12-19T08:14:35;2.90;;;2.25;;
31081;SDS011;17737;52.586;13.284;2022-12-19T08:17:03;3.20;;;2.00;;
31081;SDS011;17737;52.586;13.284;2022-12-19T08:19:47;3.13;;;2.13;;
31081;SDS011;17737;52.586;13.284;2022-12-19T08:22:15;3.40;;;2.00;;
31081;SDS011;17737;52.586;13.284;2022-12-19T08:24:43;3.08;;;2.10;;
31081;SDS011;17737;52.586;13.284;2022-12-19T08:27:12;4.75;;;2.20;;
31081;SDS011;17737;52.586;13.284;2022-12-19T08:29:41;2.42;;;1.65;;
31081;SDS011;17737;52.586;13.284;2022-12-19T08:32:09;3.30;;;2.20;;
31081;SDS011;17737;52.586;13.284;2022-12-19T08:34:45;2.70;;;1.80;;
31081;SDS011;17737;52.586;13.284;2022-12-19T08:37:13;2.67;;;1.70;;
31081;SDS011;17737;52.586;13.284;2022-12-19T08:39:41;2.45;;;1.98;;
31081;SDS011;17737;52.586;13.284;2022-12-19T08:42:09;2.97;;;2.10;;
31081;SDS011;17737;52.586;13.284;2022-12-19T08:44:38;3.05;;;1.95;;
31081;SDS011;17737;52.586;13.284;2022-12-19T08:47:06;2.65;;;1.80;;
31081;SDS011;17737;52.586;13.284;2022-12-19T08:49:34;2.30;;;1.60;;
31081;SDS011;17737;52.586;13.284;2022-12-19T08:52:02;3.10;;;2.25;;
31081;SDS011;17737;52.586;13.284;2022-12-19T08:54:30;2.53;;;1.58;;
31081;SDS011;17737;52.586;13.284;2022-12-19T08:56:58;2.97;;;2.10;;
31081;SDS011;17737;52.586;13.284;2022-12-19T08:59:26;2.65;;;1.83;;
31081;SDS011;17737;52.586;13.284;2022-12-19T09:01:59;2.80;;;1.90;;
31081;SDS011;17737;52.586;13.284;2022-12-19T09:04:27;2.38;;;1.70;;
31081;SDS011;17737;52.586;13.284;2022-12-19T09:07:15;2.35;;;1.55;;
31081;SDS011;17737;52.586;13.284;2022-12-19T09:09:44;2.72;;;1.77;;
31081;SDS011;17737;52.586;13.284;2022-12-19T09:12:12;2.70;;;2.00;;
31081;SDS011;17737;52.586;13.284;2022-12-19T09:14:40;2.80;;;1.85;;
31081;SDS011;17737;52.586;13.284;2022-12-19T09:17:10;3.08;;;1.73;;
31081;SDS011;17737;52.586;13.284;2022-12-19T09:19:38;2.53;;;1.70;;
31081;SDS011;17737;52.586;13.284;2022-12-19T09:22:13;2.22;;;1.70;;
31081;SDS011;17737;52.586;13.284;2022-12-19T09:24:41;2.83;;;1.95;;
31081;SDS011;17737;52.586;13.284;2022-12-19T09:27:09;2.83;;;1.90;;
31081;SDS011;17737;52.586;13.284;2022-12-19T09:29:37;2.47;;;1.60;;
31081;SDS011;17737;52.586;13.284;2022-12-19T09:32:05;3.72;;;1.83;;
31081;SDS011;17737;52.586;13.284;2022-12-19T09:34:34;2.25;;;1.50;;
31081;SDS011;17737;52.586;13.284;2022-12-19T09:37:04;2.38;;;1.75;;
31081;SDS011;17737;52.586;13.284;2022-12-19T09:42:08;2.20;;;1.60;;
31081;SDS011;17737;52.586;13.284;2022-12-19T09:44:51;2.05;;;1.48;;
31081;SDS011;17737;52.586;13.284;2022-12-19T09:47:33;2.67;;;1.80;;
31081;SDS011;17737;52.586;13.284;2022-12-19T09:50:13;2.35;;;1.75;;
31081;SDS011;17737;52.586;13.284;2022-12-19T09:52:53;2.05;;;1.48;;
31081;SDS011;17737;52.586;13.284;2022-12-19T09:55:25;2.50;;;1.58;;
31081;SDS011;17737;52.586;13.284;2022-12-19T09:57:58;2.70;;;1.70;;
31081;SDS011;17737;52.586;13.284;2022-12-19T10:00:32;1.88;;;1.50;;
31081;SDS011;17737;52.586;13.284;2022-12-19T10:03:02;2.40;;;1.70;;
31081;SDS011;17737;52.586;13.284;2022-12-19T10:05:37;2.33;;;1.67;;
31081;SDS011;17737;52.586;13.284;2022-12-19T10:08:30;1.58;;;1.10;;
31081;SDS011;17737;52.586;13.284;2022-12-19T10:11:25;1.73;;;1.20;;
31081;SDS011;17737;52.586;13.284;2022-12-19T10:14:30;2.78;;;1.70;;
31081;SDS011;17737;52.586;13.284;2022-12-19T10:17:13;3.05;;;2.03;;
31081;SDS011;17737;52.586;13.284;2022-12-19T10:19:55;2.50;;;1.55;;
31081;SDS011;17737;52.586;13.284;2022-12-19T10:22:53;2.28;;;1.63;;
31081;SDS011;17737;52.586;13.284;2022-12-19T10:25:31;2.13;;;1.60;;
31081;SDS011;17737;52.586;13.284;2022-12-19T10:28:11;2.15;;;1.38;;
31081;SDS011;17737;52.586;13.284;2022-12-19T10:30:46;1.83;;;1.45;;
31081;SDS011;17737;52.586;13.284;2022-12-19T10:33:33;1.77;;;1.48;;
31081;SDS011;17737;52.586;13.284;2022-12-19T10:36:06;2.40;;;1.55;;
31081;SDS011;17737;52.586;13.284;2022-12-19T10:38:40;2.78;;;1.90;;
31081;SDS011;17737;52.586;13.284;2022-12-19T10:41:18;2.22;;;1.60;;
31081;SDS011;17737;52.586;13.284;2022-12-19T10:43:51;2.17;;;1.50;;
31081;SDS011;17737;52.586;13.284;2022-12-19T10:46:34;1.90;;;1.10;;
31081;SDS011;17737;52.586;13.284;2022-12-19T10:49:10;1.95;;;1.40;;
31081;SDS011;17737;52.586;13.284;2022-12-19T10:51:40;2.08;;;1.40;;
31081;SDS011;17737;52.586;13.284;2022-12-19T10:54:10;1.77;;;1.27;;
31081;SDS011;17737;52.586;13.284;2022-12-19T10:56:37;1.70;;;1.42;;
31081;SDS011;17737;52.586;13.284;2022-12-19T10:59:14;2.67;;;1.58;;
31081;SDS011;17737;52.586;13.284;2022-12-19T11:01:42;1.85;;;1.30;;
31081;SDS011;17737;52.586;13.284;2022-12-19T11:04:18;1.80;;;1.10;;
31081;SDS011;17737;52.586;13.284;2022-12-19T11:07:07;1.83;;;1.30;;
31081;SDS011;17737;52.586;13.284;2022-12-19T11:09:47;1.50;;;1.20;;
31081;SDS011;17737;52.586;13.284;2022-12-19T11:12:34;2.15;;;1.40;;
31081;SDS011;17737;52.586;13.284;2022-12-19T11:15:22;2.30;;;1.50;;
31081;SDS011;17737;52.586;13.284;2022-12-19T11:18:11;1.67;;;1.45;;
31081;SDS011;17737;52.586;13.284;2022-12-19T11:21:00;2.35;;;1.70;;
31081;SDS011;17737;52.586;13.284;2022-12-19T11:23:51;2.13;;;1.50;;
31081;SDS011;17737;52.586;13.284;2022-12-19T11:26:43;2.30;;;1.50;;
31081;SDS011;17737;52.586;13.284;2022-12-19T11:29:41;1.90;;;1.60;;
31081;SDS011;17737;52.586;13.284;2022-12-19T11:32:32;1.73;;;1.33;;
31081;SDS011;17737;52.586;13.284;2022-12-19T11:35:15;2.72;;;1.90;;
31081;SDS011;17737;52.586;13.284;2022-12-19T11:37:46;2.33;;;1.63;;
31081;SDS011;17737;52.586;13.284;2022-12-19T11:40:22;1.52;;;1.02;;
31081;SDS011;17737;52.586;13.284;2022-12-19T11:43:02;1.92;;;1.23;;
31081;SDS011;17737;52.586;13.284;2022-12-19T11:45:55;1.70;;;1.33;;
31081;SDS011;17737;52.586;13.284;2022-12-19T11:48:35;1.52;;;1.30;;
31081;SDS011;17737;52.586;13.284;2022-12-19T11:51:11;2.42;;;1.73;;
31081;SDS011;17737;52.586;13.284;2022-12-19T11:53:51;2.28;;;1.55;;
31081;SDS011;17737;52.586;13.284;2022-12-19T11:56:28;1.75;;;1.42;;
31081;SDS011;17737;52.586;13.284;2022-12-19T11:58:58;2.55;;;1.70;;
31081;SDS011;17737;52.586;13.284;2022-12-19T12:01:38;2.28;;;1.55;;
31081;SDS011;17737;52.586;13.284;2022-12-19T12:04:37;2.30;;;1.58;;
31081;SDS011;17737;52.586;13.284;2022-12-19T12:07:24;2.20;;;1.88;;
31081;SDS011;17737;52.586;13.284;2022-12-19T12:10:19;2.22;;;1.50;;
31081;SDS011;17737;52.586;13.284;2022-12-19T12:13:09;2.03;;;1.40;;
31081;SDS011;17737;52.586;13.284;2022-12-19T12:16:08;2.88;;;2.05;;
31081;SDS011;17737;52.586;13.284;2022-12-19T12:19:00;2.40;;;1.60;;
31081;SDS011;17737;52.586;13.284;2022-12-19T12:21:59;1.63;;;1.40;;
31081;SDS011;17737;52.586;13.284;2022-12-19T12:27:52;2.17;;;1.60;;
31081;SDS011;17737;52.586;13.284;2022-12-19T12:30:53;2.60;;;1.60;;
31081;SDS011;17737;52.586;13.284;2022-12-19T12:33:52;2.63;;;1.60;;
31081;SDS011;17737;52.586;13.284;2022-12-19T12:36:52;2.85;;;1.60;;
31081;SDS011;17737;52.586;13.284;2022-12-19T12:39:55;1.92;;;1.60;;
31081;SDS011;17737;52.586;13.284;2022-12-19T12:42:40;1.80;;;1.50;;
31081;SDS011;17737;52.586;13.284;2022-12-19T12:45:18;3.38;;;1.75;;
31081;SDS011;17737;52.586;13.284;2022-12-19T12:47:50;2.50;;;1.70;;
31081;SDS011;17737;52.586;13.284;2022-12-19T12:52:51;1.67;;;1.38;;
31081;SDS011;17737;52.586;13.284;2022-12-19T12:55:23;2.15;;;1.70;;
31081;SDS011;17737;52.586;13.284;2022-12-19T12:57:53;2.40;;;1.50;;
31081;SDS011;17737;52.586;13.284;2022-12-19T13:00:23;2.08;;;1.60;;
31081;SDS011;17737;52.586;13.284;2022-12-19T13:02:53;2.60;;;1.85;;
31081;SDS011;17737;52.586;13.284;2022-12-19T13:05:36;2.33;;;1.50;;
31081;SDS011;17737;52.586;13.284;2022-12-19T13:08:24;2.75;;;1.60;;
31081;SDS011;17737;52.586;13.284;2022-12-19T13:10:58;2.65;;;1.83;;
31081;SDS011;17737;52.586;13.284;2022-12-19T13:13:47;2.42;;;1.77;;
31081;SDS011;17737;52.586;13.284;2022-12-19T13:19:20;2.42;;;1.50;;
31081;SDS011;17737;52.586;13.284;2022-12-19T13:24:49;2.30;;;1.58;;
31081;SDS011;17737;52.586;13.284;2022-12-19T13:27:31;2.38;;;1.70;;
31081;SDS011;17737;52.586;13.284;2022-12-19T13:30:18;2.35;;;1.60;;
31081;SDS011;17737;52.586;13.284;2022-12-19T13:33:06;3.03;;;1.90;;
31081;SDS011;17737;52.586;13.284;2022-12-19T13:35:37;1.83;;;1.48;;
31081;SDS011;17737;52.586;13.284;2022-12-19T13:38:27;2.67;;;1.60;;
31081;SDS011;17737;52.586;13.284;2022-12-19T13:41:25;1.92;;;1.48;;
31081;SDS011;17737;52.586;13.284;2022-12-19T13:44:12;2.17;;;1.55;;
31081;SDS011;17737;52.586;13.284;2022-12-19T13:46:45;2.95;;;1.67;;
31081;SDS011;17737;52.586;13.284;2022-12-19T13:49:14;4.15;;;1.60;;
31081;SDS011;17737;52.586;13.284;2022-12-19T13:51:46;2.22;;;1.50;;
31081;SDS011;17737;52.586;13.284;2022-12-19T13:54:23;2.20;;;1.50;;
31081;SDS011;17737;52.586;13.284;2022-12-19T13:56:57;2.20;;;1.48;;
31081;SDS011;17737;52.586;13.284;2022-12-19T13:59:34;2.17;;;1.63;;
31081;SDS011;17737;52.586;13.284;2022-12-19T14:02:25;1.83;;;1.33;;
31081;SDS011;17737;52.586;13.284;2022-12-19T14:04:56;2.38;;;1.60;;
31081;SDS011;17737;52.586;13.284;2022-12-19T14:07:35;2.47;;;1.80;;
31081;SDS011;17737;52.586;13.284;2022-12-19T14:10:07;2.97;;;1.70;;
31081;SDS011;17737;52.586;13.284;2022-12-19T14:13:04;2.42;;;1.60;;
31081;SDS011;17737;52.586;13.284;2022-12-19T14:16:22;2.22;;;1.50;;
31081;SDS011;17737;52.586;13.284;2022-12-19T14:19:16;3.67;;;1.67;;
31081;SDS011;17737;52.586;13.284;2022-12-19T14:21:45;2.05;;;1.48;;
31081;SDS011;17737;52.586;13.284;2022-12-19T14:24:33;2.60;;;1.90;;
31081;SDS011;17737;52.586;13.284;2022-12-19T14:27:04;2.47;;;1.80;;
31081;SDS011;17737;52.586;13.284;2022-12-19T14:29:55;2.85;;;1.77;;
31081;SDS011;17737;52.586;13.284;2022-12-19T14:32:45;1.85;;;1.20;;
31081;SDS011;17737;52.586;13.284;2022-12-19T14:35:37;2.20;;;1.40;;
31081;SDS011;17737;52.586;13.284;2022-12-19T14:38:32;2.60;;;1.90;;
31081;SDS011;17737;52.586;13.284;2022-12-19T14:41:31;2.22;;;1.55;;
31081;SDS011;17737;52.586;13.284;2022-12-19T14:47:33;2.10;;;1.45;;
31081;SDS011;17737;52.586;13.284;2022-12-19T14:50:27;1.92;;;1.33;;
31081;SDS011;17737;52.586;13.284;2022-12-19T14:53:17;2.10;;;1.50;;
31081;SDS011;17737;52.586;13.284;2022-12-19T14:56:07;2.10;;;1.58;;
31081;SDS011;17737;52.586;13.284;2022-12-19T14:58:58;2.63;;;1.73;;
31081;SDS011;17737;52.586;13.284;2022-12-19T15:01:28;2.60;;;1.60;;
31081;SDS011;17737;52.586;13.284;2022-12-19T15:03:59;1.85;;;1.42;;
31081;SDS011;17737;52.586;13.284;2022-12-19T15:06:50;2.03;;;1.42;;
31081;SDS011;17737;52.586;13.284;2022-12-19T15:09:37;2.58;;;1.75;;
31081;SDS011;17737;52.586;13.284;2022-12-19T15:12:34;1.67;;;1.30;;
31081;SDS011;17737;52.586;13.284;2022-12-19T15:15:52;2.25;;;1.30;;
31081;SDS011;17737;52.586;13.284;2022-12-19T15:18:25;1.67;;;1.27;;
31081;SDS011;17737;52.586;13.284;2022-12-19T15:20:56;1.77;;;1.40;;
31081;SDS011;17737;52.586;13.284;2022-12-19T15:23:25;1.98;;;1.30;;
31081;SDS011;17737;52.586;13.284;2022-12-19T15:25:54;1.50;;;1.30;;
31081;SDS011;17737;52.586;13.284;2022-12-19T15:28:37;1.50;;;1.23;;
31081;SDS011;17737;52.586;13.284;2022-12-19T15:31:09;2.13;;;1.30;;
31081;SDS011;17737;52.586;13.284;2022-12-19T15:33:56;1.98;;;1.58;;
31081;SDS011;17737;52.586;13.284;2022-12-19T15:36:47;2.33;;;1.50;;
31081;SDS011;17737;52.586;13.284;2022-12-19T15:39:17;1.92;;;1.38;;
31081;SDS011;17737;52.586;13.284;2022-12-19T15:41:50;1.85;;;1.35;;
31081;SDS011;17737;52.586;13.284;2022-12-19T15:44:21;1.80;;;1.20;;
31081;SDS011;17737;52.586;13.284;2022-12-19T15:46:52;2.13;;;1.48;;
31081;SDS011;17737;52.586;13.284;2022-12-19T15:49:22;2.83;;;1.80;;